Time;durP1;ratioP1;P1;durP2;ratioP2;P2;SDS_P1;SDS_P2;PMS_P1;PMS_P2;Temp;Humidity;BMP_temperature;BMP_pressure;BME280_temperature;BME280_humidity;BME280_pressure;Samples;Min_cycle;Max_cycle;Signal;HPM_P1;HPM_P2
2021/10/09 00:01:08;;;;;;;827.57;777.77;;;6.90;99.90;;;;;;5021740;28;21008;-89
2021/10/09 00:03:34;;;;;;;822.07;771.83;;;6.80;99.90;;;;;;5021423;28;20451;-88
2021/10/09 00:06:02;;;;;;;811.53;761.53;;;6.70;99.90;;;;;;5020620;28;20473;-89
2021/10/09 00:08:30;;;;;;;842.57;790.20;;;6.80;99.90;;;;;;5019062;28;20464;-89
2021/10/09 00:10:57;;;;;;;838.37;786.63;;;6.70;99.90;;;;;;5014334;28;20453;-90
2021/10/09 00:13:24;;;;;;;861.57;807.27;;;6.60;99.90;;;;;;5014646;28;20460;-89
2021/10/09 00:15:51;;;;;;;945.13;883.67;;;6.50;99.90;;;;;;5014978;28;20537;-90
2021/10/09 00:18:19;;;;;;;946.30;884.63;;;6.80;99.90;;;;;;5016073;28;20861;-89
2021/10/09 00:20:46;;;;;;;966.00;901.10;;;6.80;99.90;;;;;;5015909;28;20540;-89
2021/10/09 00:23:13;;;;;;;986.77;921.67;;;6.90;99.90;;;;;;5015766;28;20492;-90
2021/10/09 00:25:40;;;;;;;990.00;924.20;;;6.90;99.90;;;;;;5015339;28;20539;-87
2021/10/09 00:28:07;;;;;;;961.40;899.13;;;7.00;99.90;;;;;;5015859;28;20552;-88
2021/10/09 00:30:34;;;;;;;983.60;920.50;;;6.80;99.90;;;;;;5015675;28;20504;-90
2021/10/09 00:33:01;;;;;;;982.40;919.20;;;6.90;99.90;;;;;;5016286;28;20497;-89
2021/10/09 00:35:30;;;;;;;966.37;903.97;;;6.90;99.90;;;;;;5016362;28;20493;-88
2021/10/09 00:37:57;;;;;;;972.17;909.77;;;6.70;99.90;;;;;;5016209;28;20552;-88
2021/10/09 00:40:24;;;;;;;975.87;911.27;;;6.70;99.90;;;;;;5017610;28;20488;-90
2021/10/09 00:42:51;;;;;;;1004.97;939.97;;;6.60;99.90;;;;;;5018479;28;20465;-89
2021/10/09 00:45:17;;;;;;;1015.80;949.00;;;6.60;99.90;;;;;;5018186;28;20552;-90
2021/10/09 00:47:44;;;;;;;1017.07;950.37;;;6.70;99.90;;;;;;5019882;28;20528;-90
2021/10/09 00:50:11;;;;;;;1015.17;948.60;;;6.60;99.90;;;;;;5019750;28;20457;-90
2021/10/09 00:52:42;;;;;;;1000.97;937.17;;;6.60;99.90;;;;;;5019807;28;20450;-89
2021/10/09 00:55:11;;;;;;;1004.40;940.63;;;6.40;99.90;;;;;;5020711;28;20488;-90
2021/10/09 00:57:40;;;;;;;1008.57;943.30;;;6.30;99.90;;;;;;5019283;28;20580;-89
2021/10/09 01:00:08;;;;;;;1004.23;939.77;;;6.50;99.90;;;;;;5015662;28;20453;-90
2021/10/09 01:02:36;;;;;;;995.80;932.23;;;6.30;99.90;;;;;;5014444;28;20556;-89
2021/10/09 01:05:04;;;;;;;989.30;926.70;;;6.20;99.90;;;;;;5014730;28;20460;-90
2021/10/09 01:07:31;;;;;;;990.07;927.37;;;6.20;99.90;;;;;;4982633;28;20460;-91
2021/10/09 01:10:00;;;;;;;993.50;930.63;;;6.20;99.90;;;;;;5018059;28;20457;-90
2021/10/09 01:12:28;;;;;;;1006.40;942.70;;;6.10;99.90;;;;;;5018479;28;20461;-90
2021/10/09 01:14:55;;;;;;;1020.20;953.97;;;6.10;99.90;;;;;;5017263;28;20536;-90
2021/10/09 01:17:22;;;;;;;1014.23;948.97;;;6.10;99.90;;;;;;5015593;28;20539;-90
2021/10/09 01:19:49;;;;;;;1004.87;942.30;;;6.10;99.90;;;;;;5016244;28;20441;-84
2021/10/09 01:22:17;;;;;;;996.80;934.37;;;6.00;99.90;;;;;;5015890;28;20450;-90
2021/10/09 01:24:44;;;;;;;1002.43;939.80;;;6.00;99.90;;;;;;5015463;28;20556;-90
2021/10/09 01:27:16;;;;;;;996.40;933.90;;;6.00;99.90;;;;;;5018508;28;20488;-88
2021/10/09 01:29:43;;;;;;;993.60;931.10;;;6.00;99.90;;;;;;5019380;28;21015;-90
2021/10/09 01:32:10;;;;;;;1002.87;939.70;;;5.90;99.90;;;;;;5021713;28;20492;-90
2021/10/09 01:34:36;;;;;;;1000.70;936.70;;;5.90;99.90;;;;;;5022642;28;21119;-89
2021/10/09 01:37:04;;;;;;;1003.60;938.93;;;5.90;99.90;;;;;;5021593;28;21013;-90
2021/10/09 01:39:32;;;;;;;1015.73;949.27;;;5.90;99.90;;;;;;5019766;28;21002;-89
2021/10/09 01:41:59;;;;;;;1013.07;948.07;;;6.00;99.90;;;;;;5020593;28;20524;-88
2021/10/09 01:44:25;;;;;;;1003.63;937.97;;;6.00;99.90;;;;;;5017644;28;21307;-90
2021/10/09 01:46:52;;;;;;;1008.90;941.70;;;6.00;99.90;;;;;;5018684;28;20548;-90
2021/10/09 01:49:19;;;;;;;1007.50;944.97;;;6.00;99.90;;;;;;5018447;28;20465;-90
2021/10/09 01:51:46;;;;;;;994.70;932.83;;;5.90;99.90;;;;;;5018418;28;20539;-90
2021/10/09 01:54:13;;;;;;;1005.20;941.97;;;5.90;99.90;;;;;;5018184;28;20520;-90
2021/10/09 01:56:41;;;;;;;1019.00;955.17;;;5.90;99.90;;;;;;5017923;28;20488;-90
2021/10/09 01:59:08;;;;;;;1008.77;945.40;;;5.80;99.90;;;;;;5017289;28;20461;-90
2021/10/09 02:01:35;;;;;;;1001.20;938.60;;;5.70;99.90;;;;;;5019502;28;20501;-90
2021/10/09 02:04:03;;;;;;;1010.67;942.47;;;5.60;99.90;;;;;;5024307;28;20539;-88
2021/10/09 02:06:30;;;;;;;1025.53;958.50;;;5.50;99.90;;;;;;5024648;28;20465;-89
2021/10/09 02:08:57;;;;;;;1012.20;947.17;;;5.60;99.90;;;;;;5023524;28;20544;-90
2021/10/09 02:11:27;;;;;;;1003.50;939.77;;;5.50;99.90;;;;;;5023608;28;20456;-90
2021/10/09 02:14:01;;;;;;;1002.37;938.93;;;5.40;99.90;;;;;;5019647;28;20536;-90
2021/10/09 02:16:53;;;;;;;996.77;934.37;;;5.50;99.90;;;;;;5016633;28;20599;-89
2021/10/09 02:24:57;;;;;;;1021.63;957.07;;;5.30;99.90;;;;;;5017139;28;20492;-88
2021/10/09 02:27:24;;;;;;;1017.60;953.10;;;5.40;99.90;;;;;;5015779;28;20461;-90
2021/10/09 02:29:52;;;;;;;1013.97;949.90;;;5.20;99.90;;;;;;5015176;28;20523;-90
2021/10/09 02:32:19;;;;;;;1004.60;941.40;;;5.20;99.90;;;;;;5016284;28;20493;-90
2021/10/09 02:34:46;;;;;;;997.00;933.60;;;5.10;99.90;;;;;;4998611;28;20493;-90
2021/10/09 02:37:13;;;;;;;1000.77;936.70;;;5.00;99.90;;;;;;4995786;28;20582;-87
2021/10/09 02:39:40;;;;;;;1005.50;940.93;;;5.00;99.90;;;;;;4996260;28;20529;-89
2021/10/09 02:42:07;;;;;;;1006.60;941.40;;;5.00;99.90;;;;;;4996379;28;20490;-90
2021/10/09 02:44:34;;;;;;;1008.70;943.97;;;5.00;99.90;;;;;;4995461;28;20485;-90
2021/10/09 02:47:02;;;;;;;1004.63;940.17;;;5.00;99.90;;;;;;4996039;28;20465;-89
2021/10/09 02:49:29;;;;;;;1012.33;947.10;;;4.90;99.90;;;;;;4995806;28;20462;-90
2021/10/09 02:51:57;;;;;;;1010.87;945.87;;;5.00;99.90;;;;;;4996220;28;20459;-87
2021/10/09 02:54:24;;;;;;;1012.40;947.30;;;5.00;99.90;;;;;;4995889;28;20904;-90
2021/10/09 02:56:51;;;;;;;1016.67;950.60;;;5.00;99.90;;;;;;4999996;28;20497;-92
2021/10/09 02:59:18;;;;;;;1021.27;955.03;;;5.00;99.90;;;;;;5002766;28;20466;-91
2021/10/09 03:01:45;;;;;;;1025.87;959.87;;;4.90;99.90;;;;;;5006911;28;20450;-93
2021/10/09 03:04:13;;;;;;;1009.50;944.70;;;5.00;99.90;;;;;;5001856;28;20489;-88
2021/10/09 03:06:40;;;;;;;1037.90;967.13;;;4.70;99.90;;;;;;4995159;28;21001;-89
2021/10/09 03:09:07;;;;;;;1043.63;974.33;;;4.70;99.90;;;;;;4995232;28;20549;-88
2021/10/09 03:11:34;;;;;;;1023.97;958.27;;;4.90;99.90;;;;;;4995017;28;21007;-88
2021/10/09 03:14:01;;;;;;;1024.80;959.60;;;4.80;99.90;;;;;;4995146;28;20618;-88
2021/10/09 03:16:28;;;;;;;1009.33;945.40;;;4.90;99.90;;;;;;4994258;28;20592;-89
2021/10/09 03:18:55;;;;;;;1014.53;949.97;;;4.80;99.90;;;;;;4995213;28;20477;-90
2021/10/09 03:21:23;;;;;;;1011.83;947.03;;;4.90;99.90;;;;;;4995283;28;20500;-88
2021/10/09 03:23:50;;;;;;;1008.83;944.10;;;4.90;99.90;;;;;;4994805;28;20465;-90
2021/10/09 03:26:17;;;;;;;1008.27;943.07;;;4.80;99.90;;;;;;4994638;28;20486;-89
2021/10/09 03:28:44;;;;;;;1017.17;951.37;;;4.90;99.90;;;;;;4994685;28;20485;-89
2021/10/09 03:31:11;;;;;;;1017.80;950.70;;;4.90;99.90;;;;;;4993508;28;20458;-89
2021/10/09 03:33:39;;;;;;;1018.17;951.73;;;5.00;99.90;;;;;;5002209;28;20540;-87
2021/10/09 03:36:06;;;;;;;1012.00;947.60;;;4.90;99.90;;;;;;5014087;28;20491;-89
2021/10/09 03:38:36;;;;;;;992.10;931.43;;;4.90;99.90;;;;;;5014228;28;20512;-89
2021/10/09 03:41:07;;;;;;;1001.60;936.50;;;4.70;99.90;;;;;;5014360;28;20461;-89
2021/10/09 03:43:34;;;;;;;1002.43;939.17;;;4.50;99.90;;;;;;5014291;28;20527;-90
2021/10/09 03:46:04;;;;;;;1004.50;939.90;;;4.50;99.90;;;;;;5013511;28;20953;-87
2021/10/09 03:54:03;;;;;;;1036.43;954.50;;;4.70;99.90;;;;;;5014039;28;20453;-89
2021/10/09 03:56:30;;;;;;;1014.23;945.70;;;4.70;99.90;;;;;;5013785;28;20576;-87
2021/10/09 03:58:57;;;;;;;1022.97;954.27;;;4.50;99.90;;;;;;5013898;28;20519;-89
2021/10/09 04:01:24;;;;;;;1029.73;962.83;;;4.40;99.90;;;;;;5012895;28;20461;-90
2021/10/09 04:03:51;;;;;;;1018.20;952.23;;;4.40;99.90;;;;;;5013996;28;20988;-89
2021/10/09 04:06:18;;;;;;;1011.77;946.70;;;4.40;99.90;;;;;;5015947;28;20528;-91
2021/10/09 04:08:45;;;;;;;1016.07;949.97;;;4.40;99.90;;;;;;5014361;28;20511;-90
2021/10/09 04:11:13;;;;;;;1007.43;942.93;;;4.30;99.90;;;;;;5014009;28;20488;-90
2021/10/09 04:13:40;;;;;;;997.50;933.77;;;4.30;99.90;;;;;;5012719;28;20485;-90
2021/10/09 04:16:07;;;;;;;1004.17;939.30;;;4.30;99.90;;;;;;5003911;28;20450;-89
2021/10/09 04:18:34;;;;;;;998.17;934.17;;;4.20;99.90;;;;;;4994105;28;20611;-89
2021/10/09 04:21:01;;;;;;;1002.60;938.10;;;4.40;99.90;;;;;;4993868;28;20938;-90
2021/10/09 04:23:28;;;;;;;1023.67;957.17;;;4.40;99.90;;;;;;4994080;28;20894;-91
2021/10/09 04:25:55;;;;;;;1022.77;956.10;;;4.40;99.90;;;;;;4994260;28;20524;-90
2021/10/09 04:28:24;;;;;;;1024.07;957.33;;;4.40;99.90;;;;;;4994454;28;20996;-91
2021/10/09 04:30:51;;;;;;;1030.13;963.37;;;4.50;99.90;;;;;;4993365;28;20493;-88
2021/10/09 04:33:17;;;;;;;1034.47;966.30;;;4.60;99.90;;;;;;4999329;28;20482;-90
2021/10/09 04:35:44;;;;;;;1026.80;959.93;;;4.50;99.90;;;;;;5014510;28;20968;-90
2021/10/09 04:38:12;;;;;;;1019.33;951.43;;;4.60;99.90;;;;;;5014492;28;20576;-81
2021/10/09 04:40:39;;;;;;;1030.73;962.07;;;4.60;99.90;;;;;;5013340;28;20461;-85
2021/10/09 04:43:06;;;;;;;1031.90;959.50;;;4.50;99.90;;;;;;5013288;28;20465;-90
2021/10/09 04:45:50;;;;;;;;;;;;;;;;;;;;;
2021/10/09 04:48:19;;;;;;;1013.73;944.53;;;4.30;99.90;;;;;;5013109;28;20457;-88
2021/10/09 04:50:49;;;;;;;1013.07;943.93;;;4.30;99.90;;;;;;5013831;28;20453;-89
2021/10/09 04:53:15;;;;;;;1021.33;946.33;;;4.40;99.90;;;;;;5004222;28;21017;-89
2021/10/09 04:55:42;;;;;;;1028.77;958.07;;;4.40;99.90;;;;;;5008724;28;20541;-88
2021/10/09 04:58:12;;;;;;;1028.77;954.73;;;4.50;99.90;;;;;;5002810;28;20536;-83
2021/10/09 05:00:43;;;;;;;1045.50;969.27;;;4.50;99.90;;;;;;4993540;28;20462;-90
2021/10/09 05:03:10;;;;;;;1041.53;966.67;;;4.60;99.90;;;;;;4997646;28;20545;-79
2021/10/09 05:05:36;;;;;;;1025.27;952.53;;;4.50;99.90;;;;;;4997535;28;20507;-81
2021/10/09 05:08:06;;;;;;;1028.97;957.50;;;4.40;99.90;;;;;;4999244;28;20545;-84
2021/10/09 05:10:35;;;;;;;1014.63;946.20;;;4.40;99.90;;;;;;4998024;28;20458;-87
2021/10/09 05:13:05;;;;;;;1023.37;954.57;;;4.20;99.90;;;;;;4997499;28;20541;-87
2021/10/09 05:15:32;;;;;;;1019.53;950.97;;;4.30;99.90;;;;;;4996341;28;20454;-86
2021/10/09 05:18:06;;;;;;;1010.40;942.83;;;4.20;99.90;;;;;;4997380;28;20521;-87
2021/10/09 05:20:33;;;;;;;1011.27;943.27;;;4.10;99.90;;;;;;4997376;28;20542;-86
2021/10/09 05:23:00;;;;;;;1021.07;951.03;;;4.00;99.90;;;;;;4997374;28;20548;-84
2021/10/09 05:25:27;;;;;;;1035.37;963.87;;;4.20;99.90;;;;;;4997071;28;20493;-84
2021/10/09 05:27:58;;;;;;;1040.20;968.07;;;4.10;99.90;;;;;;4997092;28;20473;-90
2021/10/09 05:30:26;;;;;;;1046.37;971.23;;;4.30;99.90;;;;;;4995957;28;20493;-84
2021/10/09 05:33:10;;;;;;;1031.67;953.93;;;4.30;99.90;;;;;;4996819;28;20458;-86
2021/10/09 05:35:43;;;;;;;1042.80;965.70;;;4.40;99.90;;;;;;4997062;28;20847;-86
2021/10/09 05:38:10;;;;;;;1057.80;973.90;;;4.30;99.90;;;;;;4996707;28;20585;-85
2021/10/09 05:40:37;;;;;;;1043.40;965.87;;;4.40;99.90;;;;;;4996649;28;20454;-85
2021/10/09 05:43:04;;;;;;;1033.57;956.17;;;4.40;99.90;;;;;;4997001;28;20465;-87
2021/10/09 05:45:32;;;;;;;1034.07;951.87;;;4.30;99.90;;;;;;4996547;28;20870;-88
2021/10/09 05:48:00;;;;;;;1043.70;965.30;;;4.40;99.90;;;;;;4997290;28;20562;-83
2021/10/09 05:50:30;;;;;;;1035.83;962.23;;;4.30;99.90;;;;;;4997013;28;20488;-89
2021/10/09 05:53:11;;;;;;;1028.77;955.53;;;4.50;99.90;;;;;;4999759;28;20446;-91
2021/10/09 05:55:48;;;;;;;1029.77;947.07;;;4.40;99.90;;;;;;4998035;28;20481;-92
2021/10/09 05:58:18;;;;;;;1025.47;951.27;;;4.50;99.90;;;;;;4998996;28;20496;-93
2021/10/09 06:37:51;;;;;;;1024.60;954.93;;;4.90;99.90;;;;;;4974986;28;20989;-88
2021/10/09 06:43:45;;;;;;;1013.50;944.90;;;4.90;99.90;;;;;;5015175;28;20435;-88
2021/10/09 07:00:07;;;;;;;1013.80;945.03;;;5.50;99.90;;;;;;5014129;28;20537;-89
2021/10/09 07:02:38;;;;;;;1014.07;943.77;;;5.50;99.90;;;;;;5015160;28;20468;-91
2021/10/09 07:05:06;;;;;;;1009.47;940.17;;;5.60;99.90;;;;;;5014959;28;20453;-93
2021/10/09 07:07:38;;;;;;;1015.10;944.57;;;5.70;99.90;;;;;;5015065;28;20854;-88
2021/10/09 07:10:11;;;;;;;1005.83;936.97;;;5.80;99.90;;;;;;5014614;28;20472;-91
2021/10/09 07:12:38;;;;;;;1007.30;938.20;;;5.90;99.90;;;;;;5014836;28;20867;-90
2021/10/09 07:15:10;;;;;;;1010.17;940.17;;;6.10;99.90;;;;;;5008263;28;20490;-88
2021/10/09 07:17:40;;;;;;;1031.30;959.00;;;6.10;99.90;;;;;;5003639;28;20473;-87
2021/10/09 07:20:34;;;;;;;1029.70;957.37;;;6.20;99.90;;;;;;4996047;28;20956;-88
2021/10/09 07:23:02;;;;;;;1032.77;961.10;;;6.20;99.90;;;;;;4999260;28;20453;-87
2021/10/09 07:32:51;;;;;;;;;;;;;;;;;;;;;
2021/10/09 07:38:39;;;;;;;1029.10;956.70;;;6.90;99.90;;;;;;4967816;28;20486;-84
2021/10/09 07:41:06;;;;;;;1031.73;956.50;;;7.00;99.90;;;;;;4996335;28;20548;-88
2021/10/09 07:43:33;;;;;;;1043.70;965.40;;;7.10;99.90;;;;;;4995531;28;20462;-90
2021/10/09 07:46:02;;;;;;;1050.97;971.07;;;7.30;99.90;;;;;;4998331;28;20465;-92
2021/10/09 07:48:32;;;;;;;1048.63;967.77;;;7.50;99.90;;;;;;4995375;28;20513;-86
2021/10/09 07:51:05;;;;;;;1057.00;975.30;;;7.60;99.90;;;;;;4994034;28;20828;-89
2021/10/09 07:56:44;;;;;;;1047.43;966.17;;;8.10;99.90;;;;;;4987738;28;20466;-85
2021/10/09 07:59:11;;;;;;;1047.67;967.77;;;8.20;99.90;;;;;;4993420;28;20496;-79
2021/10/09 08:02:11;;;;;;;1045.10;965.20;;;8.40;99.90;;;;;;4994468;28;20837;-89
2021/10/09 08:04:39;;;;;;;1036.83;956.43;;;8.60;99.90;;;;;;4994086;28;20453;-85
2021/10/09 08:07:06;;;;;;;1025.77;946.67;;;8.70;99.90;;;;;;4996799;28;20508;-85
2021/10/09 08:09:35;;;;;;;1029.00;949.40;;;8.90;99.90;;;;;;4996127;28;20460;-96
2021/10/09 08:12:03;;;;;;;1025.70;946.57;;;9.00;99.90;;;;;;4995508;28;20450;-92
2021/10/09 08:14:30;;;;;;;1030.43;948.90;;;9.10;99.90;;;;;;4993761;28;20462;-92
2021/10/09 08:17:20;;;;;;;1019.37;939.03;;;9.30;99.90;;;;;;5000056;28;20485;-92
2021/10/09 08:19:49;;;;;;;1006.03;929.07;;;9.40;99.90;;;;;;4994107;28;20457;-92
2021/10/09 08:22:39;;;;;;;1010.17;932.77;;;9.60;99.90;;;;;;4994657;28;20516;-94
2021/10/09 08:41:09;;;;;;;;;;;;;;;;;;;;;
2021/10/09 08:46:52;;;;;;;861.83;804.47;;;10.80;99.90;;;;;;5054806;28;20448;-90
2021/10/09 08:49:32;;;;;;;763.80;715.97;;;11.20;99.90;;;;;;5053727;28;20491;-80
2021/10/09 08:51:59;;;;;;;451.70;426.03;;;11.50;99.90;;;;;;5054732;28;20866;-86
2021/10/09 08:54:35;;;;;;;323.80;306.73;;;11.80;99.90;;;;;;5053955;28;20471;-90
2021/10/09 08:57:12;;;;;;;78.23;70.67;;;12.30;99.90;;;;;;5055547;28;20534;-91
2021/10/09 08:59:47;;;;;;;58.67;52.97;;;12.60;99.90;;;;;;5054621;28;20479;-92
2021/10/09 09:02:34;;;;;;;43.50;32.00;;;13.00;99.90;;;;;;5056491;28;20910;-91
2021/10/09 09:05:15;;;;;;;40.53;32.03;;;13.50;99.90;;;;;;5064830;28;20457;-92
2021/10/09 09:08:13;;;;;;;39.83;23.83;;;13.60;99.90;;;;;;5053705;28;20549;-91
2021/10/09 09:25:31;;;;;;;120.27;45.97;;;14.70;74.50;;;;;;5053080;28;20582;-87
2021/10/09 09:31:22;;;;;;;106.23;29.23;;;15.40;74.20;;;;;;5053792;28;20498;-90
2021/10/09 09:34:17;;;;;;;96.00;21.20;;;15.70;72.70;;;;;;5053802;28;20457;-88
2021/10/09 09:37:27;;;;;;;104.97;24.53;;;16.20;74.40;;;;;;5052683;28;20460;-90
2021/10/09 09:43:20;;;;;;;111.23;30.13;;;16.20;56.70;;;;;;5033666;28;20454;-90
2021/10/09 09:45:50;;;;;;;111.90;30.33;;;16.40;55.60;;;;;;5051513;28;20515;-88
2021/10/09 09:48:25;;;;;;;118.07;43.77;;;16.60;54.70;;;;;;5056681;28;20461;-90
2021/10/09 09:57:33;;;;;;;103.67;26.60;;;16.80;50.20;;;;;;4973908;28;20464;-84
2021/10/09 10:00:36;;;;;;;104.23;26.37;;;17.60;46.80;;;;;;5048076;28;20475;-89
2021/10/09 10:06:53;;;;;;;102.47;24.60;;;18.50;40.00;;;;;;5041171;28;20443;-86
2021/10/09 10:09:34;;;;;;;;;;;;;;;;;;;;;
2021/10/09 10:12:32;;;;;;;90.00;20.27;;;19.10;35.50;;;;;;5047797;28;20446;-87
2021/10/09 10:21:01;;;;;;;97.00;23.97;;;20.10;25.90;;;;;;5785815;23;20516;-87
2021/10/09 10:23:40;;;;;;;102.00;23.37;;;20.30;24.20;;;;;;5035244;28;20192;-87
2021/10/09 10:26:42;;;;;;;90.50;21.53;;;20.30;23.70;;;;;;5033237;28;20535;-88
2021/10/09 10:37:27;;;;;;;88.77;20.63;;;21.50;20.80;;;;;;4897998;29;20457;-85
2021/10/09 10:40:22;;;;;;;92.50;22.73;;;21.20;20.60;;;;;;4943505;29;20488;-87
2021/10/09 10:43:18;;;;;;;88.10;20.80;;;21.20;21.80;;;;;;5029203;28;20514;-86
2021/10/09 11:02:45;;;;;;;23.10;0.70;;;22.00;13.70;;;;;;4926061;29;20472;-90
2021/10/09 11:05:18;;;;;;;54.88;26.92;;;22.20;13.80;;;;;;4937024;29;20798;-91
2021/10/09 11:07:52;;;;;;;0.30;0.30;;;21.70;13.50;;;;;;4938038;29;20216;-87
2021/10/09 11:10:22;;;;;;;0.30;0.30;;;21.70;14.90;;;;;;4938670;29;20478;-91
2021/10/09 11:12:51;;;;;;;0.30;0.30;;;21.70;15.90;;;;;;4936692;29;20862;-89
2021/10/09 11:15:22;;;;;;;0.30;0.30;;;22.00;12.30;;;;;;4937296;29;20468;-91
2021/10/09 11:17:59;;;;;;;0.30;0.30;;;22.20;13.10;;;;;;4938183;29;20832;-89
2021/10/09 11:20:51;;;;;;;0.30;0.30;;;22.20;13.40;;;;;;4988080;28;20564;-92
2021/10/09 11:23:52;;;;;;;0.40;0.40;;;22.00;12.10;;;;;;5017999;28;20457;-93
2021/10/09 11:26:21;;;;;;;0.30;0.30;;;21.50;12.00;;;;;;4991403;28;20567;-91
2021/10/09 11:32:09;;;;;;;0.30;0.30;;;22.50;9.70;;;;;;5014730;28;20457;-84
2021/10/09 11:34:52;;;;;;;0.30;0.30;;;22.30;11.50;;;;;;5015528;28;20457;-87
2021/10/09 11:37:20;;;;;;;0.30;0.30;;;23.00;11.30;;;;;;5014591;28;20835;-85
2021/10/09 11:39:52;;;;;;;0.30;0.30;;;23.50;10.90;;;;;;5015594;28;20515;-85
2021/10/09 11:42:27;;;;;;;0.30;0.30;;;24.20;7.60;;;;;;5015045;28;20465;-88
2021/10/09 11:45:09;;;;;;;0.30;0.30;;;24.70;6.70;;;;;;5013962;28;20456;-86
2021/10/09 11:56:07;;;;;;;0.30;0.30;;;25.00;1.00;;;;;;5015254;28;20483;-88
2021/10/09 11:58:52;;;;;;;0.30;0.30;;;24.90;1.00;;;;;;5015274;28;20972;-87
2021/10/09 12:01:32;;;;;;;0.30;0.30;;;24.40;1.10;;;;;;5013313;28;20468;-89
2021/10/09 12:04:13;;;;;;;0.30;0.30;;;24.70;1.00;;;;;;5013958;28;20452;-85
2021/10/09 12:06:50;;;;;;;0.30;0.30;;;24.90;1.00;;;;;;5013868;28;20505;-85
2021/10/09 12:09:36;;;;;;;0.30;0.30;;;25.10;1.00;;;;;;5014107;28;20452;-90
2021/10/09 12:12:19;;;;;;;0.30;0.30;;;25.40;1.00;;;;;;5014407;28;20456;-86
2021/10/09 12:14:49;;;;;;;0.30;0.30;;;25.40;1.00;;;;;;5013629;28;20457;-87
2021/10/09 12:17:17;;;;;;;0.30;0.30;;;25.80;1.00;;;;;;5014326;28;20460;-90
2021/10/09 12:19:46;;;;;;;0.30;0.30;;;25.80;1.00;;;;;;5014857;28;20488;-85
2021/10/09 12:22:15;;;;;;;0.30;0.30;;;25.60;1.00;;;;;;5013324;28;21004;-85
2021/10/09 12:24:47;;;;;;;0.30;0.30;;;25.30;1.00;;;;;;5013599;28;21011;-84
2021/10/09 12:27:16;;;;;;;0.30;0.30;;;25.70;1.00;;;;;;5014185;28;20532;-84
2021/10/09 12:29:58;;;;;;;0.30;0.30;;;25.30;1.00;;;;;;5012542;28;20460;-87
2021/10/09 12:32:25;;;;;;;0.30;0.30;;;26.40;1.00;;;;;;5014225;28;20488;-88
2021/10/09 12:35:04;;;;;;;0.30;0.30;;;26.40;1.00;;;;;;5013411;28;20480;-88
2021/10/09 12:37:34;;;;;;;0.30;0.30;;;25.90;1.00;;;;;;5013875;28;20947;-84
2021/10/09 12:40:16;;;;;;;0.30;0.30;;;25.90;1.00;;;;;;5013351;28;20485;-83
2021/10/09 12:42:45;;;;;;;0.30;0.30;;;25.50;1.00;;;;;;5013922;28;20527;-87
2021/10/09 12:45:12;;;;;;;0.30;0.30;;;25.40;1.00;;;;;;5012520;28;20796;-89
2021/10/09 12:47:48;;;;;;;0.30;0.30;;;25.00;1.00;;;;;;5013956;28;20457;-85
2021/10/09 12:50:16;;;;;;;0.30;0.30;;;25.40;1.00;;;;;;5013450;28;20547;-85
2021/10/09 12:52:45;;;;;;;0.30;0.30;;;25.90;1.00;;;;;;5013930;28;20456;-86
2021/10/09 12:55:15;;;;;;;0.30;0.30;;;25.90;1.00;;;;;;5013626;28;20545;-86
2021/10/09 12:57:50;;;;;;;0.30;0.30;;;25.80;1.00;;;;;;5013593;28;20453;-88
2021/10/09 13:00:17;;;;;;;0.30;0.30;;;25.90;1.00;;;;;;5012596;28;20492;-86
2021/10/09 13:02:51;;;;;;;0.30;0.30;;;26.20;1.00;;;;;;5013750;28;20464;-87
2021/10/09 13:05:18;;;;;;;0.30;0.30;;;26.00;1.00;;;;;;5013729;28;20457;-86
2021/10/09 13:07:46;;;;;;;0.30;0.30;;;25.40;1.00;;;;;;5013473;28;20453;-87
2021/10/09 13:10:14;;;;;;;0.30;0.30;;;25.60;1.00;;;;;;5013391;28;20464;-86
2021/10/09 13:12:42;;;;;;;0.30;0.30;;;25.30;1.00;;;;;;5013336;28;20457;-88
2021/10/09 13:15:09;;;;;;;0.30;0.30;;;25.40;1.00;;;;;;5012159;28;20449;-87
2021/10/09 13:17:37;;;;;;;0.30;0.30;;;24.80;1.00;;;;;;5013326;28;20457;-83
2021/10/09 13:20:05;;;;;;;0.30;0.30;;;23.70;1.00;;;;;;5014986;28;20852;-87
2021/10/09 13:22:32;;;;;;;0.30;0.30;;;22.70;1.00;;;;;;5015955;28;20463;-89
2021/10/09 13:25:01;;;;;;;0.30;0.30;;;22.00;1.60;;;;;;5018687;28;20456;-85
2021/10/09 13:27:27;;;;;;;0.30;0.30;;;21.10;3.80;;;;;;5018929;28;20865;-88
2021/10/09 13:29:58;;;;;;;0.40;0.40;;;20.50;5.40;;;;;;5017057;28;20465;-87
2021/10/09 13:32:25;;;;;;;5.20;0.60;;;20.20;9.70;;;;;;5016984;28;20464;-87
2021/10/09 13:34:53;;;;;;;5.20;0.60;;;19.80;10.40;;;;;;5017205;28;20451;-83
2021/10/09 13:37:21;;;;;;;5.30;0.60;;;19.70;10.10;;;;;;5017640;28;20457;-86
2021/10/09 13:39:49;;;;;;;5.30;0.60;;;19.60;11.90;;;;;;5018517;28;20476;-85
2021/10/09 13:42:17;;;;;;;5.20;0.60;;;19.20;11.60;;;;;;5017663;28;20769;-86
2021/10/09 13:44:44;;;;;;;16.17;0.80;;;19.00;17.60;;;;;;5015624;28;20458;-82
2021/10/09 13:47:13;;;;;;;9.97;0.70;;;18.70;13.60;;;;;;5016515;28;20502;-85
2021/10/09 13:49:40;;;;;;;9.77;0.70;;;18.60;16.50;;;;;;5016641;28;20826;-86
2021/10/09 13:52:07;;;;;;;9.87;0.70;;;18.50;16.20;;;;;;5016792;28;20524;-87
2021/10/09 13:54:34;;;;;;;17.23;10.83;;;18.70;17.10;;;;;;5017824;28;20457;-84
2021/10/09 13:57:01;;;;;;;18.27;9.70;;;18.80;15.20;;;;;;5017399;28;20495;-84
2021/10/09 13:59:30;;;;;;;18.63;10.73;;;18.90;16.20;;;;;;5015343;28;20490;-86
2021/10/09 14:01:56;;;;;;;21.00;10.27;;;18.90;15.00;;;;;;5017399;28;20946;-85
2021/10/09 14:04:24;;;;;;;14.20;10.27;;;19.00;16.80;;;;;;5016970;28;21039;-86
2021/10/09 14:06:52;;;;;;;16.80;9.50;;;18.70;15.20;;;;;;5016995;28;20489;-85
2021/10/09 14:09:19;;;;;;;15.20;9.77;;;18.80;16.80;;;;;;5017471;28;20959;-86
2021/10/09 14:11:46;;;;;;;14.80;10.20;;;19.00;16.90;;;;;;5016564;28;20456;-87
2021/10/09 14:14:13;;;;;;;15.67;9.27;;;18.70;17.70;;;;;;5014808;28;20457;-86
2021/10/09 14:16:41;;;;;;;15.20;9.17;;;18.90;15.60;;;;;;5015716;28;20457;-84
2021/10/09 14:19:08;;;;;;;15.73;9.00;;;19.00;14.40;;;;;;5015911;28;20524;-82
2021/10/09 14:21:44;;;;;;;14.23;9.47;;;19.20;15.60;;;;;;5015722;28;20510;-86
2021/10/09 14:24:11;;;;;;;13.93;8.40;;;19.00;16.70;;;;;;5016692;28;20461;-86
2021/10/09 14:26:38;;;;;;;14.50;9.70;;;19.00;15.60;;;;;;5016055;28;20458;-85
2021/10/09 14:29:05;;;;;;;17.53;13.23;;;19.00;14.70;;;;;;5016408;28;20552;-83
2021/10/09 14:31:34;;;;;;;14.73;10.50;;;18.80;15.70;;;;;;5015107;28;20462;-87
2021/10/09 14:34:03;;;;;;;15.87;10.40;;;18.70;16.20;;;;;;5015719;28;20515;-89
2021/10/09 14:36:32;;;;;;;20.23;11.40;;;18.50;15.20;;;;;;5016589;28;20774;-88
2021/10/09 14:39:00;;;;;;;14.37;10.00;;;18.40;16.50;;;;;;5016473;28;20540;-83
2021/10/09 14:41:27;;;;;;;19.20;10.60;;;18.40;15.80;;;;;;5015529;28;20492;-85
2021/10/09 14:43:53;;;;;;;15.93;10.10;;;18.30;17.10;;;;;;5015271;28;20552;-89
2021/10/09 14:46:46;;;;;;;14.30;9.87;;;18.30;17.70;;;;;;5014469;28;20511;-86
2021/10/09 14:49:19;;;;;;;20.20;9.37;;;18.70;15.20;;;;;;5015459;28;20550;-86
2021/10/09 14:51:52;;;;;;;16.33;9.73;;;19.20;12.90;;;;;;5015333;28;20452;-85
2021/10/09 15:19:19;;;;;;;13.37;9.20;;;19.30;11.70;;;;;;4954979;29;20872;-84
2021/10/09 15:21:49;;;;;;;16.67;9.37;;;18.70;13.50;;;;;;4954232;28;21124;-83
2021/10/09 15:24:15;;;;;;;14.13;8.20;;;18.40;13.90;;;;;;4981068;28;20515;-83
2021/10/09 15:26:43;;;;;;;16.10;8.57;;;18.10;16.60;;;;;;5014534;28;20916;-84
2021/10/09 15:29:10;;;;;;;17.03;10.00;;;17.80;16.70;;;;;;5013391;28;20500;-87
2021/10/09 15:31:37;;;;;;;14.00;10.13;;;17.60;19.20;;;;;;5014490;28;20487;-86
2021/10/09 15:34:06;;;;;;;16.60;12.23;;;17.50;23.10;;;;;;5014485;28;20530;-85
2021/10/09 15:36:33;;;;;;;18.83;12.40;;;17.40;25.10;;;;;;5014323;28;20463;-84
2021/10/09 15:39:01;;;;;;;18.10;12.50;;;17.20;26.20;;;;;;5014609;28;20510;-82
2021/10/09 15:41:29;;;;;;;25.50;13.30;;;17.20;26.20;;;;;;5014190;28;20577;-85
2021/10/09 15:43:55;;;;;;;21.23;13.60;;;17.20;27.60;;;;;;5014210;28;20455;-87
2021/10/09 15:46:23;;;;;;;26.03;14.23;;;17.10;28.50;;;;;;5012986;28;20456;-87
2021/10/09 15:48:50;;;;;;;19.60;14.87;;;16.90;29.90;;;;;;5014341;28;20456;-82
2021/10/09 15:51:17;;;;;;;17.63;15.10;;;16.90;33.30;;;;;;5014107;28;20533;-82
2021/10/09 15:53:44;;;;;;;20.33;12.93;;;16.90;35.60;;;;;;5014066;28;20458;-82
2021/10/09 15:56:15;;;;;;;25.33;14.97;;;16.60;34.40;;;;;;5013842;28;20512;-83
2021/10/09 15:58:42;;;;;;;22.90;14.60;;;16.50;37.50;;;;;;5013967;28;20531;-83
2021/10/09 16:01:12;;;;;;;23.37;15.73;;;16.40;38.20;;;;;;5012496;28;20577;-83
2021/10/09 16:03:39;;;;;;;22.20;16.17;;;16.40;39.20;;;;;;5013868;28;20488;-82